createdAt,value
2019-05-17T00:02:53.463Z,37.50
2019-05-17T00:05:26.363Z,38.35
2019-05-17T00:07:56.805Z,37.17
2019-05-17T00:10:27.653Z,35.65
2019-05-17T00:12:58.640Z,36.45
2019-05-17T00:15:29.486Z,35.40
2019-05-17T00:18:00.267Z,33.20
2019-05-17T00:20:31.328Z,35.58
2019-05-17T00:23:02.188Z,38.00
2019-05-17T00:25:33.006Z,35.20
2019-05-17T00:28:03.784Z,31.75
2019-05-17T00:30:36.981Z,32.00
2019-05-17T00:33:07.941Z,28.65
2019-05-17T00:35:39.186Z,33.05
2019-05-17T00:38:09.945Z,28.45
2019-05-17T00:40:41.704Z,28.92
2019-05-17T00:43:12.649Z,28.87
2019-05-17T00:45:43.443Z,28.55
2019-05-17T00:48:17.226Z,28.42
2019-05-17T00:50:53.506Z,26.60
2019-05-17T00:53:20.185Z,26.45
2019-05-17T00:55:51.017Z,25.60
2019-05-17T00:58:22.441Z,28.70
2019-05-17T01:00:56.885Z,27.50
2019-05-17T01:03:26.953Z,27.22
2019-05-17T01:05:58.264Z,26.10
2019-05-17T01:08:29.174Z,24.90
2019-05-17T01:11:00.130Z,25.20
2019-05-17T01:13:30.820Z,24.20
2019-05-17T01:16:01.953Z,25.80
2019-05-17T01:18:32.766Z,25.52
2019-05-17T01:21:06.260Z,27.15
2019-05-17T01:23:36.705Z,25.75
2019-05-17T01:26:07.688Z,25.62
2019-05-17T01:28:39.448Z,25.25
2019-05-17T01:31:10.582Z,28.27
2019-05-17T01:33:41.544Z,27.25
2019-05-17T01:36:12.355Z,27.32
2019-05-17T01:38:43.249Z,25.35
2019-05-17T01:41:14.227Z,24.35
2019-05-17T01:43:49.626Z,24.90
2019-05-17T01:46:21.317Z,24.80
2019-05-17T01:48:52.660Z,23.85
2019-05-17T01:51:23.627Z,24.30
2019-05-17T01:53:54.421Z,24.98
2019-05-17T01:56:26.277Z,24.47
2019-05-17T01:58:58.056Z,23.60
2019-05-17T02:01:29.253Z,24.40
2019-05-17T02:04:00.086Z,23.85
2019-05-17T02:06:31.656Z,21.85
2019-05-17T02:09:02.569Z,23.83
2019-05-17T02:11:33.398Z,23.70
2019-05-17T02:14:06.809Z,23.12
2019-05-17T02:16:37.691Z,21.73
2019-05-17T02:19:08.705Z,22.40
2019-05-17T02:21:39.673Z,22.02
2019-05-17T02:24:10.561Z,22.50
2019-05-17T02:26:41.440Z,23.50
2019-05-17T02:29:12.269Z,22.82
2019-05-17T02:31:43.715Z,24.35
2019-05-17T02:34:14.753Z,22.60
2019-05-17T02:36:45.542Z,23.05
2019-05-17T02:39:16.838Z,21.37
2019-05-17T02:41:47.744Z,22.15
2019-05-17T02:44:18.668Z,22.10
2019-05-17T02:46:49.509Z,22.15
2019-05-17T02:49:23.355Z,22.73
2019-05-17T02:51:55.561Z,22.00
2019-05-17T02:54:26.661Z,22.32
2019-05-17T02:56:58.311Z,24.32
2019-05-17T02:59:29.282Z,22.67
2019-05-17T03:02:03.575Z,22.10
2019-05-17T03:04:33.292Z,21.65
2019-05-17T03:07:04.256Z,21.48
2019-05-17T03:09:35.165Z,21.45
2019-05-17T03:12:05.794Z,21.20
2019-05-17T03:14:36.619Z,22.07
2019-05-17T03:17:07.561Z,21.45
2019-05-17T03:19:38.390Z,20.82
2019-05-17T03:22:09.396Z,21.30
2019-05-17T03:24:40.120Z,21.42
2019-05-17T03:27:13.468Z,22.80
2019-05-17T03:29:44.248Z,23.12
2019-05-17T03:32:17.254Z,22.13
2019-05-17T03:34:55.248Z,21.23
2019-05-17T03:37:29.976Z,20.95
2019-05-17T03:39:54.077Z,21.27
2019-05-17T03:42:25.350Z,22.02
2019-05-17T03:44:57.084Z,21.62
2019-05-17T03:47:28.275Z,22.02
2019-05-17T03:50:02.786Z,21.55
2019-05-17T03:52:33.316Z,21.20
2019-05-17T03:55:04.164Z,21.12
2019-05-17T03:57:35.246Z,23.07
2019-05-17T04:00:08.267Z,21.25
2019-05-17T04:02:39.219Z,21.37
2019-05-17T04:05:14.708Z,20.60
2019-05-17T04:07:45.919Z,21.15
2019-05-17T04:10:17.135Z,21.15
2019-05-17T04:12:47.922Z,20.30
2019-05-17T04:15:19.472Z,21.27
2019-05-17T04:17:52.886Z,22.05
2019-05-17T04:20:22.701Z,21.62
2019-05-17T04:22:55.914Z,20.17
2019-05-17T04:25:27.171Z,21.40
2019-05-17T04:27:58.252Z,21.37
2019-05-17T04:30:32.280Z,20.62
2019-05-17T04:33:03.576Z,20.17
2019-05-17T04:35:33.697Z,20.43
2019-05-17T04:38:04.717Z,20.08
2019-05-17T04:40:35.569Z,20.70
2019-05-17T04:43:06.656Z,19.95
2019-05-17T04:45:37.675Z,19.95
2019-05-17T04:48:08.525Z,20.75
2019-05-17T04:50:42.723Z,19.95
2019-05-17T04:53:13.248Z,19.45
2019-05-17T04:55:44.346Z,19.42
2019-05-17T04:58:15.218Z,19.30
2019-05-17T05:00:46.128Z,19.92
2019-05-17T05:03:17.185Z,19.35
2019-05-17T05:05:47.966Z,19.57
2019-05-17T05:08:22.212Z,20.43
2019-05-17T05:10:53.497Z,20.65
2019-05-17T05:13:23.905Z,19.60
2019-05-17T05:15:55.318Z,19.45
2019-05-17T05:18:26.479Z,20.00
2019-05-17T05:20:58.014Z,19.37
2019-05-17T05:23:28.920Z,19.95
2019-05-17T05:25:59.679Z,19.52
2019-05-17T05:28:31.739Z,19.30
2019-05-17T05:31:03.380Z,19.25
2019-05-17T05:33:34.359Z,18.15
2019-05-17T05:36:05.537Z,18.92
2019-05-17T05:38:37.555Z,19.75
2019-05-17T05:41:08.847Z,18.73
2019-05-17T05:43:45.007Z,18.73
2019-05-17T05:46:17.057Z,17.82
2019-05-17T05:48:49.218Z,18.42
2019-05-17T05:51:21.616Z,19.87
2019-05-17T05:53:54.307Z,19.75
2019-05-17T05:56:25.563Z,18.27
2019-05-17T05:58:56.694Z,19.20
2019-05-17T06:01:27.830Z,17.65
2019-05-17T06:03:58.862Z,17.98
2019-05-17T06:06:32.040Z,18.92
2019-05-17T06:09:02.754Z,18.37
2019-05-17T06:11:33.926Z,22.10
2019-05-17T06:14:04.945Z,18.60
2019-05-17T06:16:36.053Z,18.75
2019-05-17T06:19:07.220Z,17.85
2019-05-17T06:21:38.327Z,19.07
2019-05-17T06:24:11.483Z,18.17
2019-05-17T06:26:42.097Z,18.73
2019-05-17T06:29:13.201Z,17.80
2019-05-17T06:31:44.106Z,18.40
2019-05-17T06:34:15.530Z,17.65
2019-05-17T06:36:46.494Z,17.32
2019-05-17T06:39:17.449Z,17.80
2019-05-17T06:41:52.197Z,17.07
2019-05-17T06:44:23.210Z,17.40
2019-05-17T06:46:54.872Z,17.05
2019-05-17T06:49:25.820Z,16.50
2019-05-17T06:51:56.728Z,17.27
2019-05-17T06:54:27.659Z,16.90
2019-05-17T06:56:59.114Z,17.73
2019-05-17T06:59:30.070Z,16.80
2019-05-17T07:02:00.859Z,23.40
2019-05-17T07:04:31.758Z,18.98
2019-05-17T07:07:04.013Z,24.02
2019-05-17T07:09:36.101Z,18.73
2019-05-17T07:12:07.221Z,17.62
2019-05-17T07:14:40.005Z,16.52
2019-05-17T07:17:10.588Z,16.35
2019-05-17T07:19:41.565Z,15.63
2019-05-17T07:22:12.481Z,14.53
2019-05-17T07:24:43.169Z,15.32
2019-05-17T07:27:13.973Z,14.30
2019-05-17T07:29:45.042Z,16.32
2019-05-17T07:32:16.041Z,14.53
2019-05-17T07:34:46.740Z,14.78
2019-05-17T07:37:19.466Z,13.90
2019-05-17T07:39:59.581Z,14.30
2019-05-17T07:42:21.886Z,13.83
2019-05-17T07:44:52.712Z,14.47
2019-05-17T07:47:23.559Z,14.45
2019-05-17T07:49:54.703Z,14.55
2019-05-17T07:52:25.581Z,13.90
2019-05-17T07:54:56.877Z,15.08
2019-05-17T07:57:29.974Z,15.28
2019-05-17T08:00:14.568Z,14.43
2019-05-17T08:02:45.515Z,14.85
2019-05-17T08:05:16.618Z,15.60
2019-05-17T08:07:49.993Z,16.87
2019-05-17T08:10:21.367Z,16.15
2019-05-17T08:12:52.195Z,15.68
2019-05-17T08:15:24.296Z,15.08
2019-05-17T08:17:55.213Z,14.80
2019-05-17T08:20:25.981Z,16.70
2019-05-17T08:22:59.660Z,15.23
2019-05-17T08:25:30.593Z,15.08
2019-05-17T08:28:01.478Z,19.90
2019-05-17T08:30:32.488Z,17.82
2019-05-17T08:33:03.487Z,15.25
2019-05-17T08:35:34.462Z,19.20
2019-05-17T08:38:19.739Z,19.82
2019-05-17T08:41:06.150Z,15.72
2019-05-17T08:43:45.884Z,15.50
2019-05-17T08:46:23.183Z,15.43
2019-05-17T08:48:54.310Z,16.05
2019-05-17T08:51:26.050Z,15.23
2019-05-17T08:53:57.104Z,14.38
2019-05-17T08:56:30.688Z,15.58
2019-05-17T08:59:15.429Z,15.60
2019-05-17T09:01:50.721Z,14.78
2019-05-17T09:04:21.614Z,17.00
2019-05-17T09:06:52.509Z,16.60
2019-05-17T09:09:23.427Z,15.93
2019-05-17T09:11:54.346Z,14.58
2019-05-17T09:14:25.383Z,15.90
2019-05-17T09:16:56.358Z,16.00
2019-05-17T09:19:29.971Z,15.05
2019-05-17T09:22:00.983Z,15.88
2019-05-17T09:24:31.989Z,15.83
2019-05-17T09:27:02.890Z,15.53
2019-05-17T09:29:33.721Z,15.23
2019-05-17T09:32:05.293Z,15.70
2019-05-17T09:34:36.379Z,15.93
2019-05-17T09:37:09.729Z,15.90
2019-05-17T09:39:40.159Z,15.88
2019-05-17T09:42:11.366Z,17.07
2019-05-17T09:44:42.151Z,16.00
2019-05-17T09:47:13.193Z,16.00
2019-05-17T09:49:44.319Z,14.85
2019-05-17T09:52:15.623Z,15.58
2019-05-17T09:54:46.439Z,15.18
2019-05-17T09:57:17.604Z,15.20
2019-05-17T09:59:49.599Z,14.85
2019-05-17T10:02:21.078Z,15.13
2019-05-17T10:04:52.703Z,15.78
2019-05-17T10:07:23.583Z,15.85
2019-05-17T10:09:59.550Z,15.53
2019-05-17T10:12:29.489Z,15.78
2019-05-17T10:15:00.510Z,15.08
2019-05-17T10:17:31.601Z,15.58
2019-05-17T10:20:02.393Z,15.63
2019-05-17T10:22:33.178Z,15.25
2019-05-17T10:25:04.188Z,15.08
2019-05-17T10:27:35.007Z,16.05
2019-05-17T10:30:10.063Z,15.32
2019-05-17T10:32:40.897Z,14.93
2019-05-17T10:35:12.283Z,16.20
2019-05-17T10:37:42.955Z,15.53
2019-05-17T10:40:14.488Z,15.85
2019-05-17T10:42:45.379Z,16.42
2019-05-17T10:45:16.548Z,16.50
2019-05-17T10:47:47.359Z,15.53
2019-05-17T10:50:20.404Z,17.15
2019-05-17T10:52:50.767Z,16.07
2019-05-17T10:55:21.717Z,16.97
2019-05-17T10:57:52.949Z,18.45
2019-05-17T11:00:24.331Z,25.70
2019-05-17T11:02:55.062Z,27.07
2019-05-17T11:05:26.001Z,28.87
2019-05-17T11:07:56.869Z,29.67
2019-05-17T11:10:27.804Z,28.42
2019-05-17T11:12:58.645Z,29.95
2019-05-17T11:15:29.523Z,31.30
2019-05-17T11:18:00.452Z,31.00
2019-05-17T11:20:31.526Z,26.25
2019-05-17T11:23:02.429Z,20.08
2019-05-17T11:25:33.289Z,19.37
2019-05-17T11:28:04.100Z,19.60
2019-05-17T11:30:34.927Z,19.62
2019-05-17T11:33:06.074Z,18.32
2019-05-17T11:35:36.964Z,19.73
2019-05-17T11:38:07.804Z,18.75
2019-05-17T11:40:38.576Z,18.77
2019-05-17T11:43:09.506Z,19.32
2019-05-17T11:45:40.381Z,18.65
2019-05-17T11:48:11.327Z,18.55
2019-05-17T11:50:42.275Z,19.02
2019-05-17T11:53:13.175Z,19.25
2019-05-17T11:55:44.124Z,18.60
2019-05-17T11:58:15.028Z,19.70
2019-05-17T12:00:45.890Z,18.27
2019-05-17T12:03:16.713Z,19.32
2019-05-17T12:05:47.617Z,18.40
2019-05-17T12:08:18.377Z,19.35
2019-05-17T12:10:49.054Z,19.20
2019-05-17T12:13:20.023Z,18.70
2019-05-17T12:15:50.818Z,18.05
2019-05-17T12:18:21.521Z,19.00
2019-05-17T12:20:52.522Z,18.02
2019-05-17T12:23:23.515Z,18.82
2019-05-17T12:25:54.239Z,18.00
2019-05-17T12:28:25.090Z,17.95
2019-05-17T12:30:55.923Z,18.65
2019-05-17T12:33:26.838Z,17.37
2019-05-17T12:35:57.702Z,18.50
2019-05-17T12:38:28.404Z,18.17
2019-05-17T12:40:59.353Z,18.17
2019-05-17T12:43:30.136Z,16.97
2019-05-17T12:46:01.784Z,16.77
2019-05-17T12:48:33.169Z,18.35
2019-05-17T12:51:03.930Z,17.62
2019-05-17T12:53:35.027Z,16.90
2019-05-17T12:56:05.806Z,28.38
2019-05-17T12:58:36.750Z,21.85
2019-05-17T13:01:07.775Z,21.12
2019-05-17T13:03:38.614Z,19.37
2019-05-17T13:06:09.421Z,21.50
2019-05-17T13:08:40.549Z,21.30
2019-05-17T13:11:11.353Z,23.70
2019-05-17T13:13:42.267Z,25.37
2019-05-17T13:16:17.894Z,24.07
2019-05-17T13:18:45.089Z,24.45
2019-05-17T13:21:15.980Z,23.25
2019-05-17T13:23:46.630Z,21.02
2019-05-17T13:26:17.573Z,21.02
2019-05-17T13:28:48.384Z,21.25
2019-05-17T13:31:19.428Z,20.95
2019-05-17T13:33:50.251Z,21.05
2019-05-17T13:36:21.145Z,21.05
2019-05-17T13:38:51.883Z,19.75
2019-05-17T13:41:22.833Z,18.67
2019-05-17T13:43:53.500Z,20.12
2019-05-17T13:46:32.904Z,18.85
2019-05-17T13:48:56.620Z,18.67
2019-05-17T13:51:27.546Z,19.12
2019-05-17T13:53:58.353Z,19.07
2019-05-17T13:56:29.121Z,19.35
2019-05-17T13:58:59.901Z,20.43
2019-05-17T14:01:30.801Z,19.05
2019-05-17T14:04:01.581Z,19.87
2019-05-17T14:06:32.487Z,20.30
2019-05-17T14:09:03.309Z,20.08
2019-05-17T14:11:34.212Z,19.67
2019-05-17T14:14:05.162Z,20.45
2019-05-17T14:16:35.952Z,21.20
2019-05-17T14:19:06.860Z,19.30
2019-05-17T14:21:37.760Z,20.08
2019-05-17T14:24:08.638Z,20.77
2019-05-17T14:26:39.551Z,19.42
2019-05-17T14:29:10.485Z,20.02
2019-05-17T14:31:41.416Z,22.15
2019-05-17T14:34:12.244Z,21.68
2019-05-17T14:36:43.096Z,21.00
2019-05-17T14:39:13.906Z,21.30
2019-05-17T14:41:44.781Z,20.88
2019-05-17T14:44:15.468Z,20.80
2019-05-17T14:46:46.375Z,21.73
2019-05-17T14:49:17.174Z,20.77
2019-05-17T14:51:47.976Z,21.37
2019-05-17T14:54:18.950Z,22.48
2019-05-17T14:56:49.578Z,23.87
2019-05-17T14:59:20.430Z,24.18
2019-05-17T15:01:51.283Z,21.57
2019-05-17T15:04:21.965Z,23.30
2019-05-17T15:06:52.988Z,22.55
2019-05-17T15:09:23.833Z,22.70
2019-05-17T15:11:54.511Z,23.22
2019-05-17T15:14:29.456Z,26.10
2019-05-17T15:16:58.043Z,29.12
2019-05-17T15:19:29.035Z,31.75
2019-05-17T15:21:59.841Z,24.92
2019-05-17T15:24:30.706Z,24.67
2019-05-17T15:27:05.923Z,25.82
2019-05-17T15:29:33.693Z,22.52
2019-05-17T15:32:04.535Z,24.77
2019-05-17T15:34:35.486Z,26.80
2019-05-17T15:37:06.568Z,25.70
2019-05-17T15:39:37.503Z,25.40
2019-05-17T15:42:08.398Z,24.57
2019-05-17T15:44:39.188Z,23.55
2019-05-17T15:47:09.990Z,23.70
2019-05-17T15:49:40.793Z,34.88
2019-05-17T15:52:11.667Z,27.45
2019-05-17T15:54:42.666Z,24.70
2019-05-17T15:57:13.400Z,26.07
2019-05-17T15:59:44.375Z,26.07
2019-05-17T16:02:15.309Z,24.70
2019-05-17T16:04:46.039Z,23.60
2019-05-17T16:07:16.818Z,23.12
2019-05-17T16:09:47.801Z,23.07
2019-05-17T16:12:18.864Z,24.63
2019-05-17T16:14:49.497Z,23.95
2019-05-17T16:17:20.414Z,21.95
2019-05-17T16:19:51.376Z,23.00
2019-05-17T16:22:22.168Z,22.45
2019-05-17T16:24:53.302Z,23.07
2019-05-17T16:27:24.209Z,24.32
2019-05-17T16:29:55.038Z,24.57
2019-05-17T16:32:25.935Z,24.67
2019-05-17T16:34:56.842Z,24.92
2019-05-17T16:37:27.758Z,24.45
2019-05-17T16:39:58.574Z,25.00
2019-05-17T16:42:29.556Z,25.60
2019-05-17T16:45:00.243Z,24.72
2019-05-17T16:47:31.863Z,25.95
2019-05-17T16:50:07.140Z,25.17
2019-05-17T16:52:37.993Z,26.42
2019-05-17T16:55:09.398Z,27.60
2019-05-17T16:57:40.381Z,26.87
2019-05-17T17:00:13.543Z,28.35
2019-05-17T17:02:44.433Z,26.42
2019-05-17T17:05:15.595Z,27.10
2019-05-17T17:07:46.290Z,27.32
2019-05-17T17:10:17.737Z,26.97
2019-05-17T17:12:48.724Z,27.50
2019-05-17T17:15:19.936Z,28.62
2019-05-17T17:17:50.942Z,28.00
2019-05-17T17:20:22.273Z,27.73
2019-05-17T17:22:53.162Z,29.45
2019-05-17T17:25:24.187Z,28.87
2019-05-17T17:27:55.553Z,29.42
2019-05-17T17:30:46.769Z,29.32
2019-05-17T17:33:17.722Z,28.00
2019-05-17T17:35:48.518Z,27.85
2019-05-17T17:38:19.436Z,28.32
2019-05-17T17:40:50.281Z,29.05
2019-05-17T17:43:21.279Z,28.45
2019-05-17T17:45:52.208Z,28.20
2019-05-17T17:48:23.281Z,27.80
2019-05-17T17:50:54.271Z,27.07
2019-05-17T17:53:25.213Z,27.15
2019-05-17T17:55:56.233Z,25.77
2019-05-17T17:58:27.165Z,26.93
2019-05-17T18:00:58.251Z,27.17
2019-05-17T18:03:29.004Z,25.40
2019-05-17T18:05:59.700Z,26.15
2019-05-17T18:08:30.470Z,23.85
2019-05-17T18:11:01.352Z,24.60
2019-05-17T18:13:32.317Z,24.05
2019-05-17T18:16:03.038Z,25.00
2019-05-17T18:18:34.006Z,23.92
2019-05-17T18:21:05.048Z,24.65
2019-05-17T18:23:35.832Z,25.08
2019-05-17T18:26:07.917Z,24.20
2019-05-17T18:28:38.823Z,24.35
2019-05-17T18:31:09.666Z,24.35
2019-05-17T18:33:40.424Z,23.55
2019-05-17T18:36:11.124Z,24.32
2019-05-17T18:38:42.638Z,23.18
2019-05-17T18:41:13.442Z,23.77
2019-05-17T18:43:44.166Z,22.55
2019-05-17T18:46:15.144Z,22.87
2019-05-17T18:48:46.003Z,22.00
2019-05-17T18:51:16.820Z,21.73
2019-05-17T18:53:48.083Z,22.65
2019-05-17T18:56:19.043Z,22.85
2019-05-17T18:58:49.982Z,22.70
2019-05-17T19:01:20.766Z,20.85
2019-05-17T19:03:51.773Z,22.52
2019-05-17T19:06:22.672Z,22.20
2019-05-17T19:08:53.431Z,21.85
2019-05-17T19:11:24.350Z,21.57
2019-05-17T19:13:55.133Z,22.30
2019-05-17T19:16:25.915Z,22.62
2019-05-17T19:18:56.657Z,21.23
2019-05-17T19:21:27.635Z,21.75
2019-05-17T19:23:58.513Z,22.82
2019-05-17T19:26:29.523Z,23.00
2019-05-17T19:29:00.309Z,22.40
2019-05-17T19:31:31.501Z,22.27
2019-05-17T19:34:02.387Z,22.05
2019-05-17T19:36:33.172Z,22.45
2019-05-17T19:39:04.168Z,22.35
2019-05-17T19:41:35.094Z,22.75
2019-05-17T19:44:06.182Z,22.45
2019-05-17T19:46:37.026Z,22.80
2019-05-17T19:49:08.030Z,22.32
2019-05-17T19:51:38.756Z,21.95
2019-05-17T19:54:09.547Z,22.62
2019-05-17T19:56:40.429Z,21.55
2019-05-17T19:59:11.357Z,21.57
2019-05-17T20:01:42.517Z,22.17
2019-05-17T20:04:13.281Z,21.25
2019-05-17T20:06:44.141Z,23.30
2019-05-17T20:09:14.861Z,22.58
2019-05-17T20:11:45.763Z,23.32
2019-05-17T20:14:16.548Z,23.80
2019-05-17T20:16:47.296Z,22.93
2019-05-17T20:19:18.193Z,22.50
2019-05-17T20:21:48.920Z,23.00
2019-05-17T20:24:19.890Z,22.30
2019-05-17T20:26:50.813Z,23.00
2019-05-17T20:29:21.799Z,23.38
2019-05-17T20:31:52.568Z,22.60
2019-05-17T20:34:23.357Z,23.22
2019-05-17T20:36:54.229Z,23.65
2019-05-17T20:39:25.017Z,23.80
2019-05-17T20:41:57.516Z,24.05
2019-05-17T20:44:28.158Z,24.52
2019-05-17T20:46:59.771Z,25.12
2019-05-17T20:49:30.676Z,25.15
2019-05-17T20:52:01.368Z,23.87
2019-05-17T20:54:32.037Z,25.37
2019-05-17T20:57:02.944Z,25.12
2019-05-17T20:59:34.064Z,24.43
2019-05-17T21:02:04.876Z,25.57
2019-05-17T21:04:35.862Z,24.87
2019-05-17T21:07:06.824Z,26.48
2019-05-17T21:09:37.626Z,26.40
2019-05-17T21:12:08.620Z,27.13
2019-05-17T21:14:40.261Z,26.15
2019-05-17T21:17:11.232Z,26.42
2019-05-17T21:19:42.031Z,24.92
2019-05-17T21:22:12.988Z,25.37
2019-05-17T21:24:43.793Z,25.97
2019-05-17T21:27:14.557Z,25.88
2019-05-17T21:29:45.338Z,25.27
2019-05-17T21:32:16.226Z,26.40
2019-05-17T21:34:47.111Z,26.17
2019-05-17T21:37:18.473Z,24.85
2019-05-17T21:39:49.280Z,25.43
2019-05-17T21:42:20.046Z,24.82
2019-05-17T21:44:50.809Z,24.52
2019-05-17T21:47:21.688Z,26.40
2019-05-17T21:49:52.661Z,27.50
2019-05-17T21:52:23.564Z,25.02
2019-05-17T21:54:54.394Z,25.68
2019-05-17T21:57:26.166Z,26.02
2019-05-17T21:59:56.992Z,25.32
2019-05-17T22:02:27.894Z,26.07
2019-05-17T22:04:58.633Z,26.20
2019-05-17T22:07:29.478Z,26.20
2019-05-17T22:10:00.298Z,25.68
2019-05-17T22:12:31.349Z,26.17
2019-05-17T22:15:02.189Z,25.72
2019-05-17T22:17:33.102Z,25.88
2019-05-17T22:20:04.025Z,26.80
2019-05-17T22:22:34.713Z,25.00
2019-05-17T22:25:06.628Z,27.15
2019-05-17T22:27:37.433Z,26.95
